Terminal Aerodrome Forecast
Issued by NWS Wichita, KS

Home | Current Version | Previous Version | Text Only | Print | Product List | Glossary On
Versions: 1 2 3 4 5 6 7 8 9 10 11 12 13 14 15 16
000
FTUS43 KICT 260520
TAFICT
TAF
KICT 260520Z 2606/2706 08007KT P6SM BKN100
     FM261100 12007KT P6SM OVC100
     FM261600 17013KT P6SM BKN070=

USA.gov is the U.S. government's official web portal to all federal, state and local government web resources and services.